createdAt,value
2023-04-23T00:01:47.973Z,6.10
2023-04-23T00:04:19.244Z,5.90
2023-04-23T00:06:48.166Z,6.20
2023-04-23T00:09:16.997Z,6.53
2023-04-23T00:11:45.561Z,7.65
2023-04-23T00:14:13.457Z,6.07
2023-04-23T00:16:41.257Z,7.78
2023-04-23T00:19:09.062Z,6.80
2023-04-23T00:21:36.557Z,6.53
2023-04-23T00:24:04.152Z,7.28
2023-04-23T00:26:31.647Z,7.53
2023-04-23T00:28:59.214Z,6.85
2023-04-23T00:31:27.369Z,6.68
2023-04-23T00:33:56.070Z,7.32
2023-04-23T00:36:23.863Z,7.00
2023-04-23T00:38:51.585Z,7.10
2023-04-23T00:41:19.693Z,7.25
2023-04-23T00:43:47.658Z,7.35
2023-04-23T00:46:16.931Z,8.32
2023-04-23T00:48:46.371Z,7.80
2023-04-23T00:51:16.120Z,8.10
2023-04-23T00:53:43.753Z,8.35
2023-04-23T00:56:11.793Z,9.15
2023-04-23T00:58:39.835Z,9.27
2023-04-23T01:01:07.893Z,8.38
2023-04-23T01:03:37.623Z,8.00
2023-04-23T01:06:05.761Z,9.00
2023-04-23T01:08:35.252Z,8.35
2023-04-23T01:11:03.874Z,8.30
2023-04-23T01:13:31.873Z,7.88
2023-04-23T01:15:59.675Z,16.52
2023-04-23T01:18:27.739Z,11.20
2023-04-23T01:20:55.855Z,8.63
2023-04-23T01:23:23.466Z,9.73
2023-04-23T01:25:51.278Z,8.63
2023-04-23T01:28:19.078Z,8.23
2023-04-23T01:30:47.911Z,6.65
2023-04-23T01:33:16.361Z,7.65
2023-04-23T01:35:44.470Z,8.20
2023-04-23T01:38:14.391Z,9.20
2023-04-23T01:40:42.655Z,7.65
2023-04-23T01:43:11.161Z,7.88
2023-04-23T01:45:39.071Z,8.75
2023-04-23T01:48:06.764Z,8.65
2023-04-23T01:50:34.743Z,9.25
2023-04-23T01:53:02.306Z,7.88
2023-04-23T01:55:30.318Z,8.38
2023-04-23T01:57:59.541Z,9.15
2023-04-23T02:00:27.139Z,8.65
2023-04-23T02:02:54.777Z,9.07
2023-04-23T02:05:22.896Z,8.43
2023-04-23T02:07:51.539Z,8.90
2023-04-23T02:10:19.614Z,8.38
2023-04-23T02:12:47.498Z,10.20
2023-04-23T02:15:15.928Z,8.75
2023-04-23T02:17:43.802Z,9.75
2023-04-23T02:20:11.899Z,9.00
2023-04-23T02:22:41.366Z,8.55
2023-04-23T02:25:09.790Z,9.63
2023-04-23T02:27:37.505Z,9.02
2023-04-23T02:30:06.122Z,8.07
2023-04-23T02:32:33.759Z,8.85
2023-04-23T02:35:02.440Z,9.20
2023-04-23T02:37:33.413Z,8.45
2023-04-23T02:40:01.875Z,8.57
2023-04-23T02:42:32.710Z,9.20
2023-04-23T02:45:01.003Z,11.90
2023-04-23T02:47:33.414Z,8.05
2023-04-23T02:50:03.394Z,8.35
2023-04-23T02:52:33.277Z,9.38
2023-04-23T02:55:04.741Z,10.48
2023-04-23T02:57:32.721Z,9.23
2023-04-23T03:00:00.406Z,9.45
2023-04-23T03:02:36.853Z,8.77
2023-04-23T03:05:06.171Z,7.85
2023-04-23T03:07:33.907Z,6.85
2023-04-23T03:10:02.603Z,7.35
2023-04-23T03:12:32.422Z,8.20
2023-04-23T03:15:01.324Z,7.47
2023-04-23T03:17:32.396Z,5.88
2023-04-23T03:20:01.039Z,5.72
2023-04-23T03:22:31.846Z,5.95
2023-04-23T03:24:59.695Z,5.93
2023-04-23T03:27:27.722Z,9.10
2023-04-23T03:29:57.071Z,6.72
2023-04-23T03:32:24.903Z,7.63
2023-04-23T03:34:52.413Z,8.38
2023-04-23T03:37:20.741Z,8.23
2023-04-23T03:39:48.272Z,6.65
2023-04-23T03:42:16.383Z,7.05
2023-04-23T03:44:45.064Z,7.25
2023-04-23T03:47:12.700Z,7.72
2023-04-23T03:49:40.518Z,7.30
2023-04-23T03:52:09.188Z,8.07
2023-04-23T03:54:40.501Z,7.93
2023-04-23T03:57:12.766Z,8.18
2023-04-23T03:59:53.321Z,7.93
2023-04-23T04:02:21.274Z,8.88
2023-04-23T04:04:51.736Z,8.05
2023-04-23T04:07:19.646Z,8.18
2023-04-23T04:09:49.439Z,6.40
2023-04-23T04:12:17.214Z,6.43
2023-04-23T04:14:46.000Z,7.10
2023-04-23T04:17:16.105Z,7.05
2023-04-23T04:19:44.136Z,5.82
2023-04-23T04:22:11.771Z,5.85
2023-04-23T04:24:42.258Z,5.03
2023-04-23T04:27:10.329Z,5.13
2023-04-23T04:29:40.899Z,5.63
2023-04-23T04:32:09.617Z,4.97
2023-04-23T04:34:38.442Z,5.18
2023-04-23T04:37:06.808Z,4.05
2023-04-23T04:39:34.514Z,4.78
2023-04-23T04:42:03.512Z,3.95
2023-04-23T04:44:31.150Z,4.38
2023-04-23T04:46:58.851Z,4.75
2023-04-23T04:49:27.080Z,5.10
2023-04-23T04:51:54.964Z,4.18
2023-04-23T04:54:22.698Z,4.78
2023-04-23T04:56:50.469Z,4.18
2023-04-23T04:59:18.066Z,4.45
2023-04-23T05:01:46.105Z,5.40
2023-04-23T05:04:14.124Z,5.45
2023-04-23T05:06:41.956Z,5.03
2023-04-23T05:09:10.658Z,4.55
2023-04-23T05:11:38.571Z,4.88
2023-04-23T05:14:06.237Z,5.47
2023-04-23T05:16:34.645Z,5.40
2023-04-23T05:19:02.427Z,4.93
2023-04-23T05:21:30.217Z,5.22
2023-04-23T05:23:58.019Z,5.03
2023-04-23T05:26:25.888Z,5.07
2023-04-23T05:28:53.663Z,4.97
2023-04-23T05:31:21.650Z,4.25
2023-04-23T05:33:50.883Z,4.32
2023-04-23T05:36:19.217Z,5.15
2023-04-23T05:38:47.549Z,6.22
2023-04-23T05:41:15.742Z,6.22
2023-04-23T05:43:43.666Z,5.38
2023-04-23T05:46:11.432Z,5.50
2023-04-23T05:48:39.707Z,5.75
2023-04-23T05:51:07.698Z,5.82
2023-04-23T05:53:35.955Z,6.88
2023-04-23T05:56:04.418Z,5.43
2023-04-23T05:58:32.296Z,4.85
2023-04-23T06:01:00.488Z,4.68
2023-04-23T06:03:28.706Z,4.68
2023-04-23T06:05:56.556Z,4.80
2023-04-23T06:08:25.267Z,4.32
2023-04-23T06:10:53.320Z,3.88
2023-04-23T06:13:21.333Z,3.30
2023-04-23T06:15:48.932Z,3.08
2023-04-23T06:18:16.599Z,3.83
2023-04-23T06:20:45.162Z,4.63
2023-04-23T06:23:13.751Z,3.25
2023-04-23T06:25:41.348Z,3.38
2023-04-23T06:28:09.218Z,3.17
2023-04-23T06:30:49.294Z,2.53
2023-04-23T06:33:17.538Z,2.67
2023-04-23T06:35:46.875Z,2.72
2023-04-23T06:38:15.252Z,2.80
2023-04-23T06:40:42.927Z,2.75
2023-04-23T06:43:10.723Z,3.75
2023-04-23T06:45:57.207Z,2.70
2023-04-23T06:48:26.795Z,2.53
2023-04-23T06:50:54.648Z,2.75
2023-04-23T06:53:22.669Z,3.45
2023-04-23T06:55:51.462Z,3.22
2023-04-23T06:58:19.297Z,3.30
2023-04-23T07:00:47.057Z,3.35
2023-04-23T07:03:14.972Z,3.60
2023-04-23T07:05:43.191Z,3.85
2023-04-23T07:08:11.008Z,4.72
2023-04-23T07:10:39.083Z,4.63
2023-04-23T07:13:07.130Z,4.80
2023-04-23T07:15:35.054Z,5.68
2023-04-23T07:18:03.207Z,5.57
2023-04-23T07:20:30.874Z,6.53
2023-04-23T07:22:59.237Z,6.00
2023-04-23T07:25:27.341Z,12.20
2023-04-23T07:27:54.884Z,7.00
2023-04-23T07:30:24.473Z,6.43
2023-04-23T07:32:52.612Z,6.28
2023-04-23T07:35:20.484Z,6.95
2023-04-23T07:37:53.631Z,7.22
2023-04-23T07:40:22.492Z,6.15
2023-04-23T07:42:51.605Z,6.25
2023-04-23T07:45:19.812Z,5.53
2023-04-23T07:47:50.048Z,5.57
2023-04-23T07:50:17.855Z,5.05
2023-04-23T07:52:45.474Z,5.43
2023-04-23T07:55:13.084Z,4.95
2023-04-23T07:57:40.867Z,4.85
2023-04-23T08:00:09.632Z,4.63
2023-04-23T08:02:40.652Z,4.70
2023-04-23T08:05:09.011Z,5.18
2023-04-23T08:07:36.904Z,5.10
2023-04-23T08:10:06.442Z,4.63
2023-04-23T08:12:36.014Z,4.70
2023-04-23T08:15:04.373Z,5.15
2023-04-23T08:17:38.538Z,4.28
2023-04-23T08:20:11.994Z,4.25
2023-04-23T08:22:39.645Z,2.72
2023-04-23T08:25:07.704Z,3.33
2023-04-23T08:27:35.464Z,3.25
2023-04-23T08:30:03.266Z,2.78
2023-04-23T08:32:32.458Z,2.70
2023-04-23T08:35:00.289Z,2.80
2023-04-23T08:37:31.603Z,2.40
2023-04-23T08:40:01.372Z,2.38
2023-04-23T08:42:40.683Z,2.22
2023-04-23T08:45:08.760Z,2.00
2023-04-23T08:47:40.672Z,2.00
2023-04-23T08:50:11.151Z,1.85
2023-04-23T08:52:42.925Z,2.30
2023-04-23T08:55:10.899Z,2.20
2023-04-23T08:57:42.220Z,1.55
2023-04-23T09:00:11.821Z,1.90
2023-04-23T09:02:45.646Z,1.40
2023-04-23T09:05:14.431Z,6.97
2023-04-23T09:07:42.925Z,5.90
2023-04-23T09:10:12.994Z,2.85
2023-04-23T09:12:43.316Z,1.80
2023-04-23T09:15:12.792Z,2.00
2023-04-23T09:17:45.271Z,1.95
2023-04-23T09:20:15.301Z,2.25
2023-04-23T09:22:52.633Z,2.10
2023-04-23T09:25:22.472Z,2.45
2023-04-23T09:27:51.876Z,2.20
2023-04-23T09:30:22.572Z,1.90
2023-04-23T09:32:52.276Z,1.70
2023-04-23T09:35:20.288Z,1.98
2023-04-23T09:37:53.047Z,1.70
2023-04-23T09:40:23.705Z,1.88
2023-04-23T09:42:54.697Z,1.58
2023-04-23T09:45:25.224Z,1.58
2023-04-23T09:47:56.549Z,1.50
2023-04-23T09:50:39.170Z,1.80
2023-04-23T09:53:09.118Z,1.50
2023-04-23T09:55:39.736Z,1.52
2023-04-23T09:58:12.955Z,1.40
2023-04-23T10:00:41.692Z,1.73
2023-04-23T10:03:10.343Z,1.80
2023-04-23T10:08:15.300Z,1.33
2023-04-23T10:13:20.172Z,1.52
2023-04-23T10:15:48.959Z,1.95
2023-04-23T10:18:16.902Z,2.22
2023-04-23T10:20:44.897Z,1.80
2023-04-23T10:23:13.659Z,2.67
2023-04-23T10:25:42.882Z,1.83
2023-04-23T10:28:12.260Z,1.70
2023-04-23T10:30:40.902Z,1.60
2023-04-23T10:33:15.694Z,1.80
2023-04-23T10:35:52.181Z,2.00
2023-04-23T10:38:22.385Z,1.55
2023-04-23T10:40:53.842Z,1.60
2023-04-23T10:43:21.974Z,2.00
2023-04-23T10:45:50.643Z,2.20
2023-04-23T10:48:18.521Z,1.90
2023-04-23T10:51:06.997Z,2.13
2023-04-23T10:53:36.429Z,1.73
2023-04-23T10:56:07.999Z,1.50
2023-04-23T10:58:51.995Z,1.77
2023-04-23T11:01:22.149Z,1.63
2023-04-23T11:03:52.356Z,1.88
2023-04-23T11:06:43.480Z,1.75
2023-04-23T11:09:29.270Z,1.67
2023-04-23T11:12:00.204Z,1.40
2023-04-23T11:14:50.228Z,1.23
2023-04-23T11:17:22.242Z,1.50
2023-04-23T11:20:11.486Z,1.80
2023-04-23T11:22:49.942Z,1.67
2023-04-23T11:25:24.758Z,1.80
2023-04-23T11:27:54.381Z,2.80
2023-04-23T11:30:27.507Z,1.67
2023-04-23T11:32:57.348Z,1.98
2023-04-23T11:35:30.426Z,1.80
2023-04-23T11:37:58.352Z,1.25
2023-04-23T11:40:26.229Z,1.63
2023-04-23T11:42:57.830Z,1.70
2023-04-23T11:45:29.900Z,1.77
2023-04-23T11:47:59.256Z,1.55
2023-04-23T11:50:30.057Z,1.90
2023-04-23T11:52:58.005Z,1.80
2023-04-23T11:55:25.645Z,1.70
2023-04-23T11:57:53.227Z,2.10
2023-04-23T12:00:23.242Z,2.30
2023-04-23T12:02:53.771Z,1.75
2023-04-23T12:05:37.604Z,1.55
2023-04-23T12:08:12.727Z,1.92
2023-04-23T12:10:50.794Z,2.20
2023-04-23T12:13:22.471Z,1.77
2023-04-23T12:15:52.307Z,2.30
2023-04-23T12:18:20.315Z,2.03
2023-04-23T12:20:47.957Z,2.45
2023-04-23T12:23:15.847Z,2.15
2023-04-23T12:25:43.482Z,2.13
2023-04-23T12:28:10.988Z,2.53
2023-04-23T12:30:44.278Z,2.08
2023-04-23T12:33:12.164Z,1.95
2023-04-23T12:35:39.698Z,2.22
2023-04-23T12:38:07.708Z,2.90
2023-04-23T12:40:35.493Z,2.00
2023-04-23T12:43:03.024Z,3.05
2023-04-23T12:45:38.317Z,2.60
2023-04-23T12:48:06.012Z,2.58
2023-04-23T12:50:33.698Z,3.03
2023-04-23T12:53:01.394Z,2.67
2023-04-23T12:55:29.125Z,2.90
2023-04-23T12:57:56.814Z,2.20
2023-04-23T13:00:24.557Z,2.45
2023-04-23T13:02:52.503Z,2.42
2023-04-23T13:05:20.220Z,2.35
2023-04-23T13:07:47.853Z,2.30
2023-04-23T13:10:15.827Z,2.33
2023-04-23T13:12:43.706Z,2.45
2023-04-23T13:15:13.053Z,2.20
2023-04-23T13:17:41.501Z,2.28
2023-04-23T13:20:09.500Z,2.10
2023-04-23T13:22:37.154Z,2.63
2023-04-23T13:25:05.308Z,2.25
2023-04-23T13:27:33.031Z,2.42
2023-04-23T13:30:01.838Z,2.47
2023-04-23T13:32:32.800Z,2.72
2023-04-23T13:35:03.044Z,2.20
2023-04-23T13:37:32.538Z,2.20
2023-04-23T13:40:00.652Z,2.75
2023-04-23T13:42:29.028Z,2.35
2023-04-23T13:44:57.282Z,2.40
2023-04-23T13:47:25.109Z,2.47
2023-04-23T13:49:52.746Z,2.40
2023-04-23T13:52:20.338Z,2.28
2023-04-23T13:54:49.218Z,1.90
2023-04-23T13:57:16.908Z,2.50
2023-04-23T13:59:44.483Z,2.00
2023-04-23T14:02:12.401Z,2.40
2023-04-23T14:04:39.993Z,2.10
2023-04-23T14:07:07.679Z,2.50
2023-04-23T14:09:35.195Z,2.30
2023-04-23T14:12:02.852Z,2.45
2023-04-23T14:14:30.584Z,2.20
2023-04-23T14:16:58.286Z,2.17
2023-04-23T14:19:25.924Z,2.72
2023-04-23T14:21:53.438Z,2.15
2023-04-23T14:24:28.777Z,2.30
2023-04-23T14:26:57.095Z,2.40
2023-04-23T14:29:30.586Z,2.35
2023-04-23T14:31:58.284Z,2.60
2023-04-23T14:34:25.838Z,2.25
2023-04-23T14:36:53.902Z,2.17
2023-04-23T14:39:22.882Z,1.95
2023-04-23T14:41:50.633Z,2.50
2023-04-23T14:44:18.533Z,2.38
2023-04-23T14:46:46.173Z,2.30
2023-04-23T14:49:14.410Z,2.20
2023-04-23T14:51:42.226Z,3.10
2023-04-23T14:54:10.546Z,2.60
2023-04-23T14:56:38.292Z,2.20
2023-04-23T14:59:05.976Z,2.50
2023-04-23T15:01:33.550Z,2.85
2023-04-23T15:04:01.673Z,2.53
2023-04-23T15:06:29.823Z,2.92
2023-04-23T15:08:57.461Z,2.60
2023-04-23T15:11:25.043Z,2.22
2023-04-23T15:14:18.658Z,2.60
2023-04-23T15:16:48.768Z,3.30
2023-04-23T15:19:19.061Z,2.80
2023-04-23T15:21:47.595Z,2.60
2023-04-23T15:24:16.309Z,2.55
2023-04-23T15:26:46.171Z,2.53
2023-04-23T15:29:14.199Z,2.95
2023-04-23T15:31:42.349Z,2.78
2023-04-23T15:34:11.639Z,2.40
2023-04-23T15:36:39.199Z,2.60
2023-04-23T15:39:08.692Z,3.53
2023-04-23T15:41:38.546Z,2.95
2023-04-23T15:44:11.891Z,2.38
2023-04-23T15:46:40.184Z,5.38
2023-04-23T15:49:07.836Z,3.20
2023-04-23T15:51:36.264Z,3.15
2023-04-23T15:54:08.402Z,2.88
2023-04-23T15:56:36.760Z,2.55
2023-04-23T15:59:04.795Z,4.07
2023-04-23T16:01:32.670Z,3.70
2023-04-23T16:06:32.002Z,1.90
2023-04-23T16:08:59.741Z,2.00
2023-04-23T16:11:28.459Z,2.40
2023-04-23T16:13:57.164Z,3.00
2023-04-23T16:16:25.072Z,2.22
2023-04-23T16:18:53.450Z,2.92
2023-04-23T16:21:21.325Z,2.25
2023-04-23T16:23:49.122Z,2.95
2023-04-23T16:26:16.918Z,2.10
2023-04-23T16:28:45.829Z,2.13
2023-04-23T16:31:13.575Z,2.08
2023-04-23T16:33:41.238Z,2.05
2023-04-23T16:36:12.998Z,2.40
2023-04-23T16:38:41.922Z,3.90
2023-04-23T16:41:09.596Z,4.05
2023-04-23T16:43:37.138Z,3.30
2023-04-23T16:46:04.797Z,3.58
2023-04-23T16:48:32.487Z,3.30
2023-04-23T16:51:00.141Z,2.92
2023-04-23T16:53:27.942Z,2.70
2023-04-23T16:55:56.106Z,2.50
2023-04-23T16:58:23.758Z,2.78
2023-04-23T17:00:51.262Z,2.42
2023-04-23T17:03:18.883Z,3.20
2023-04-23T17:05:50.591Z,3.13
2023-04-23T17:08:18.473Z,3.63
2023-04-23T17:10:46.069Z,3.72
2023-04-23T17:13:13.658Z,4.20
2023-04-23T17:15:41.481Z,4.07
2023-04-23T17:18:10.570Z,3.05
2023-04-23T17:20:39.091Z,3.08
2023-04-23T17:23:09.660Z,4.30
2023-04-23T17:25:40.930Z,3.20
2023-04-23T17:28:08.621Z,3.05
2023-04-23T17:30:38.684Z,4.03
2023-04-23T17:33:06.458Z,3.25
2023-04-23T17:35:34.338Z,3.17
2023-04-23T17:38:01.907Z,3.67
2023-04-23T17:40:29.840Z,3.50
2023-04-23T17:42:58.820Z,3.67
2023-04-23T17:45:26.561Z,4.05
2023-04-23T17:47:54.376Z,3.25
2023-04-23T17:50:22.172Z,3.00
2023-04-23T17:52:51.751Z,4.03
2023-04-23T17:55:22.041Z,4.07
2023-04-23T17:57:50.645Z,9.18
2023-04-23T18:00:19.466Z,4.40
2023-04-23T18:02:47.408Z,4.63
2023-04-23T18:05:16.990Z,5.47
2023-04-23T18:07:44.965Z,4.47
2023-04-23T18:10:12.641Z,4.97
2023-04-23T18:12:40.537Z,4.05
2023-04-23T18:15:11.347Z,4.03
2023-04-23T18:17:39.526Z,4.20
2023-04-23T18:20:10.988Z,3.63
2023-04-23T18:22:39.200Z,3.75
2023-04-23T18:25:07.723Z,4.80
2023-04-23T18:27:35.665Z,5.03
2023-04-23T18:30:05.734Z,3.80
2023-04-23T18:32:42.729Z,4.10
2023-04-23T18:35:10.879Z,4.90
2023-04-23T18:37:44.147Z,4.28
2023-04-23T18:40:12.398Z,4.57
2023-04-23T18:42:40.467Z,4.47
2023-04-23T18:45:08.738Z,4.40
2023-04-23T18:47:49.606Z,3.85
2023-04-23T18:50:37.388Z,4.55
2023-04-23T18:53:05.577Z,4.75
2023-04-23T18:55:33.082Z,4.82
2023-04-23T18:58:01.314Z,5.15
2023-04-23T19:00:29.190Z,4.97
2023-04-23T19:02:56.848Z,4.25
2023-04-23T19:05:25.088Z,4.43
2023-04-23T19:07:52.895Z,4.43
2023-04-23T19:10:20.691Z,4.93
2023-04-23T19:12:48.408Z,4.05
2023-04-23T19:15:16.512Z,4.55
2023-04-23T19:17:44.361Z,4.18
2023-04-23T19:20:15.309Z,5.18
2023-04-23T19:22:43.053Z,5.05
2023-04-23T19:25:10.655Z,5.28
2023-04-23T19:27:38.276Z,4.80
2023-04-23T19:30:09.665Z,5.18
2023-04-23T19:32:37.430Z,4.80
2023-04-23T19:35:05.807Z,4.05
2023-04-23T19:37:34.028Z,4.57
2023-04-23T19:40:01.584Z,4.15
2023-04-23T19:42:32.704Z,4.20
2023-04-23T19:45:00.307Z,4.70
2023-04-23T19:47:28.020Z,5.10
2023-04-23T19:49:55.890Z,4.88
2023-04-23T19:52:26.048Z,4.70
2023-04-23T19:54:53.750Z,4.70
2023-04-23T19:57:22.371Z,3.92
2023-04-23T19:59:50.083Z,4.53
2023-04-23T20:02:17.663Z,4.05
2023-04-23T20:04:48.505Z,4.57
2023-04-23T20:07:17.510Z,5.82
2023-04-23T20:09:45.383Z,4.63
2023-04-23T20:12:14.384Z,3.83
2023-04-23T20:14:42.709Z,5.53
2023-04-23T20:17:10.525Z,4.38
2023-04-23T20:19:38.464Z,5.00
2023-04-23T20:22:06.953Z,4.88
2023-04-23T20:24:35.805Z,4.22
2023-04-23T20:27:03.634Z,4.60
2023-04-23T20:29:31.357Z,4.35
2023-04-23T20:31:59.375Z,5.05
2023-04-23T20:34:27.210Z,4.57
2023-04-23T20:37:00.315Z,4.35
2023-04-23T20:39:27.999Z,4.88
2023-04-23T20:41:57.870Z,4.97
2023-04-23T20:44:25.929Z,6.07
2023-04-23T20:46:54.076Z,5.78
2023-04-23T20:49:22.417Z,5.28
2023-04-23T20:51:50.160Z,5.40
2023-04-23T20:54:17.701Z,5.68
2023-04-23T20:56:45.393Z,5.32
2023-04-23T20:59:16.013Z,5.50
2023-04-23T21:01:43.720Z,4.35
2023-04-23T21:04:12.847Z,6.05
2023-04-23T21:06:41.450Z,3.90
2023-04-23T21:09:09.466Z,4.70
2023-04-23T21:11:37.172Z,3.72
2023-04-23T21:14:08.893Z,3.80
2023-04-23T21:16:38.506Z,3.83
2023-04-23T21:19:06.403Z,4.22
2023-04-23T21:21:34.125Z,3.72
2023-04-23T21:24:01.801Z,3.90
2023-04-23T21:26:30.919Z,3.75
2023-04-23T21:28:59.045Z,3.28
2023-04-23T21:31:42.169Z,4.20
2023-04-23T21:34:09.835Z,3.58
2023-04-23T21:36:37.441Z,2.92
2023-04-23T21:39:05.048Z,4.13
2023-04-23T21:41:32.889Z,3.03
2023-04-23T21:44:00.554Z,3.75
2023-04-23T21:46:28.280Z,2.55
2023-04-23T21:48:56.377Z,3.30
2023-04-23T21:51:25.370Z,3.97
2023-04-23T21:53:52.869Z,3.63
2023-04-23T21:56:21.674Z,3.15
2023-04-23T21:58:49.336Z,3.45
2023-04-23T22:01:18.329Z,2.90
2023-04-23T22:03:47.436Z,3.17
2023-04-23T22:06:16.108Z,3.10
2023-04-23T22:08:47.072Z,3.17
2023-04-23T22:11:14.954Z,3.40
2023-04-23T22:13:42.770Z,3.17
2023-04-23T22:16:26.805Z,3.50
2023-04-23T22:18:59.327Z,2.83
2023-04-23T22:21:28.475Z,2.75
2023-04-23T22:23:56.145Z,2.92
2023-04-23T22:26:23.822Z,3.67
2023-04-23T22:28:51.336Z,2.90
2023-04-23T22:31:19.027Z,3.05
2023-04-23T22:33:46.663Z,3.08
2023-04-23T22:36:14.432Z,3.40
2023-04-23T22:38:42.165Z,3.30
2023-04-23T22:41:09.637Z,3.67
2023-04-23T22:43:37.290Z,3.50
2023-04-23T22:46:05.163Z,3.35
2023-04-23T22:48:32.791Z,3.72
2023-04-23T22:51:00.290Z,3.17
2023-04-23T22:53:27.949Z,3.10
2023-04-23T22:55:56.028Z,3.35
2023-04-23T22:58:23.648Z,3.53
2023-04-23T23:00:53.718Z,4.07
2023-04-23T23:03:21.925Z,4.30
2023-04-23T23:05:49.525Z,3.13
2023-04-23T23:08:17.181Z,3.08
2023-04-23T23:10:44.709Z,2.88
2023-04-23T23:13:12.253Z,3.60
2023-04-23T23:15:39.751Z,4.65
2023-04-23T23:18:07.892Z,4.55
2023-04-23T23:20:35.822Z,4.20
2023-04-23T23:23:03.770Z,3.53
2023-04-23T23:25:31.557Z,3.28
2023-04-23T23:27:59.204Z,3.35
2023-04-23T23:30:26.863Z,3.60
2023-04-23T23:32:54.578Z,3.25
2023-04-23T23:35:22.103Z,4.22
2023-04-23T23:37:49.904Z,3.97
2023-04-23T23:40:17.795Z,3.72
2023-04-23T23:42:45.661Z,4.05
2023-04-23T23:45:13.197Z,3.58
2023-04-23T23:47:41.184Z,3.30
2023-04-23T23:50:09.416Z,3.70
2023-04-23T23:52:36.930Z,4.05
2023-04-23T23:55:05.165Z,3.83
2023-04-23T23:57:33.138Z,3.72
